Time;durP1;ratioP1;P1;durP2;ratioP2;P2;SDS_P1;SDS_P2;PMS_P1;PMS_P2;Temp;Humidity;BMP_temperature;BMP_pressure;BME280_temperature;BME280_humidity;BME280_pressure;Samples;Min_cycle;Max_cycle;Signal;HPM_P1;HPM_P2
2023/05/17 00:01:41;;;;;;;;;;;21.50;89.80;;;;;;5099218;28;19952;-53
2023/05/17 00:04:06;;;;;;;;;;;21.50;89.90;;;;;;5117110;28;19908;-54
2023/05/17 00:06:33;;;;;;;;;;;21.50;89.90;;;;;;5117389;28;19914;-51
2023/05/17 00:08:59;;;;;;;;;;;21.50;89.90;;;;;;5117103;28;19965;-53
2023/05/17 00:11:24;;;;;;;;;;;21.50;89.90;;;;;;5117411;28;19907;-50
2023/05/17 00:13:50;;;;;;;;;;;21.50;89.90;;;;;;5098831;28;19911;-52
2023/05/17 00:16:15;;;;;;;;;;;21.50;90.00;;;;;;5117105;28;19912;-54
2023/05/17 00:18:41;;;;;;;;;;;21.50;90.00;;;;;;5116554;28;19959;-50
2023/05/17 00:21:06;;;;;;;;;;;21.50;90.00;;;;;;5116821;28;19930;-55
2023/05/17 00:23:31;;;;;;;;;;;21.50;90.00;;;;;;5116746;28;19907;-52
2023/05/17 00:25:57;;;;;;;;;;;21.70;90.00;;;;;;5116729;28;19908;-52
2023/05/17 00:28:22;;;;;;;;;;;21.80;89.70;;;;;;5116938;28;20417;-50
2023/05/17 00:30:48;;;;;;;;;;;22.00;89.20;;;;;;5116572;28;19919;-52
2023/05/17 00:33:13;;;;;;;;;;;22.10;88.70;;;;;;5116834;28;19918;-55
2023/05/17 00:35:39;;;;;;;;;;;22.20;88.40;;;;;;5116559;28;19912;-52
2023/05/17 00:38:04;;;;;;;;;;;22.20;88.20;;;;;;5098449;28;20045;-55
2023/05/17 00:40:30;;;;;;;;;;;22.20;88.00;;;;;;5116736;28;20335;-55
2023/05/17 00:42:55;;;;;;;;;;;22.20;88.20;;;;;;5116586;28;20417;-52
2023/05/17 00:45:21;;;;;;;;;;;22.20;88.20;;;;;;5116380;28;20000;-51
2023/05/17 00:47:47;;;;;;;;;;;22.10;88.20;;;;;;5098272;28;19908;-52
2023/05/17 00:50:12;;;;;;;;;;;22.00;88.30;;;;;;5116516;28;19912;-53
2023/05/17 00:52:38;;;;;;;;;;;22.00;88.50;;;;;;5116418;28;20373;-51
2023/05/17 00:55:04;;;;;;;;;;;22.00;88.60;;;;;;5116153;28;19915;-53
2023/05/17 00:57:30;;;;;;;;;;;21.90;88.70;;;;;;5116148;28;19908;-54
2023/05/17 00:59:57;;;;;;;;;;;21.90;88.90;;;;;;5116488;28;19943;-53
2023/05/17 01:02:23;;;;;;;;;;;21.80;89.00;;;;;;5116012;28;19908;-52
2023/05/17 01:04:48;;;;;;;;;;;21.80;89.10;;;;;;5116227;28;20043;-53
2023/05/17 01:07:14;;;;;;;;;;;21.70;89.30;;;;;;5116136;28;19912;-51
2023/05/17 01:09:40;;;;;;;;;;;21.70;89.40;;;;;;5116178;28;20244;-53
2023/05/17 01:12:10;;;;;;;;;;;21.70;89.50;;;;;;5097693;28;19908;-51
2023/05/17 01:14:44;;;;;;;;;;;21.60;89.40;;;;;;5116129;28;19912;-53
2023/05/17 01:17:20;;;;;;;;;;;21.60;89.50;;;;;;5115973;28;19908;-54
2023/05/17 01:20:05;;;;;;;;;;;21.60;89.50;;;;;;5115740;28;19908;-52
2023/05/17 01:22:35;;;;;;;;;;;21.70;89.60;;;;;;5115612;28;20281;-53
2023/05/17 01:25:03;;;;;;;;;;;21.70;89.50;;;;;;5115528;28;20393;-54
2023/05/17 01:27:29;;;;;;;;;;;21.90;89.40;;;;;;5115522;28;19912;-51
2023/05/17 01:29:55;;;;;;;;;;;22.00;88.80;;;;;;5115003;28;19908;-54
2023/05/17 01:32:21;;;;;;;;;;;22.10;88.50;;;;;;5115550;28;19911;-53
2023/05/17 01:34:46;;;;;;;;;;;22.20;88.30;;;;;;5115297;28;20282;-53
2023/05/17 01:37:12;;;;;;;;;;;22.20;88.10;;;;;;5115249;28;20354;-54
2023/05/17 01:39:37;;;;;;;;;;;22.20;88.00;;;;;;5115450;28;20315;-53
2023/05/17 01:42:03;;;;;;;;;;;22.20;88.20;;;;;;5115151;28;19912;-51
2023/05/17 01:44:57;;;;;;;;;;;22.20;88.30;;;;;;5115506;28;20282;-50
2023/05/17 01:48:01;;;;;;;;;;;22.20;88.40;;;;;;5097492;28;19911;-53
2023/05/17 01:50:28;;;;;;;;;;;22.10;88.30;;;;;;5032275;28;19909;-53
2023/05/17 01:53:04;;;;;;;;;;;22.00;88.60;;;;;;5032384;28;20008;-53
2023/05/17 01:55:45;;;;;;;;;;;22.00;88.70;;;;;;5077186;28;19912;-52
2023/05/17 01:58:11;;;;;;;;;;;21.90;88.80;;;;;;5115191;28;19907;-50
2023/05/17 02:00:38;;;;;;;;;;;21.90;89.10;;;;;;5114761;28;19912;-53
2023/05/17 02:03:03;;;;;;;;;;;21.80;89.20;;;;;;5115110;28;19914;-51
2023/05/17 02:05:29;;;;;;;;;;;21.80;89.40;;;;;;5115036;28;20387;-53
2023/05/17 02:07:55;;;;;;;;;;;21.70;89.50;;;;;;5115022;28;19908;-51
2023/05/17 02:10:20;;;;;;;;;;;21.70;89.50;;;;;;5114871;28;19907;-53
2023/05/17 02:12:46;;;;;;;;;;;21.70;89.50;;;;;;5115098;28;19962;-50
2023/05/17 02:15:12;;;;;;;;;;;21.60;89.50;;;;;;5114942;28;19912;-52
2023/05/17 02:17:39;;;;;;;;;;;21.60;89.60;;;;;;5114895;28;19908;-51
2023/05/17 02:20:05;;;;;;;;;;;21.60;89.50;;;;;;5114866;28;19908;-53
2023/05/17 02:22:31;;;;;;;;;;;21.60;89.60;;;;;;5115001;28;20372;-52
2023/05/17 02:24:56;;;;;;;;;;;21.70;89.70;;;;;;5114789;28;20010;-49
2023/05/17 02:27:22;;;;;;;;;;;21.70;89.50;;;;;;5114729;28;20324;-53
2023/05/17 02:29:47;;;;;;;;;;;21.90;89.30;;;;;;5114430;28;19911;-53
2023/05/17 02:32:13;;;;;;;;;;;22.00;88.70;;;;;;5114651;28;21887;-53
2023/05/17 02:34:38;;;;;;;;;;;22.20;88.50;;;;;;5114429;28;19919;-53
2023/05/17 02:37:04;;;;;;;;;;;22.30;88.20;;;;;;5114683;28;20384;-53
2023/05/17 02:39:31;;;;;;;;;;;22.30;88.00;;;;;;5114596;28;19911;-51
2023/05/17 02:41:56;;;;;;;;;;;22.20;88.50;;;;;;5114022;28;19947;-50
2023/05/17 02:44:22;;;;;;;;;;;22.30;88.10;;;;;;5114554;28;19931;-51
2023/05/17 02:46:47;;;;;;;;;;;22.20;88.20;;;;;;5114363;28;19915;-51
2023/05/17 02:49:13;;;;;;;;;;;22.20;88.30;;;;;;5114086;28;19952;-49
2023/05/17 02:51:38;;;;;;;;;;;22.10;88.40;;;;;;5114017;28;19919;-53
2023/05/17 02:54:03;;;;;;;;;;;22.10;88.60;;;;;;5114237;28;19981;-54
2023/05/17 02:56:29;;;;;;;;;;;22.00;88.50;;;;;;5114227;28;19911;-51
2023/05/17 02:58:56;;;;;;;;;;;22.00;88.80;;;;;;5114196;28;19953;-53
2023/05/17 03:01:22;;;;;;;;;;;21.90;88.80;;;;;;5113872;28;19998;-51
2023/05/17 03:03:47;;;;;;;;;;;21.90;88.90;;;;;;5114040;28;19947;-54
2023/05/17 03:06:13;;;;;;;;;;;21.80;89.10;;;;;;5089699;28;20289;-50
2023/05/17 03:08:39;;;;;;;;;;;21.80;89.10;;;;;;5094403;28;19916;-51
2023/05/17 03:11:04;;;;;;;;;;;21.70;89.10;;;;;;5102170;28;20381;-54
2023/05/17 03:13:30;;;;;;;;;;;21.70;89.30;;;;;;5113332;28;19912;-49
2023/05/17 03:15:55;;;;;;;;;;;21.70;89.30;;;;;;5113225;28;19962;-52
2023/05/17 03:18:21;;;;;;;;;;;21.60;89.50;;;;;;5113203;28;19955;-51
2023/05/17 03:20:46;;;;;;;;;;;21.60;89.60;;;;;;5095036;28;19908;-50
2023/05/17 03:23:12;;;;;;;;;;;21.60;89.80;;;;;;5112948;28;19908;-53
2023/05/17 03:25:37;;;;;;;;;;;21.60;89.80;;;;;;5112922;28;20354;-49
2023/05/17 03:28:03;;;;;;;;;;;21.70;89.70;;;;;;5113730;28;20034;-50
2023/05/17 03:30:28;;;;;;;;;;;21.80;89.40;;;;;;5114449;28;20056;-52
2023/05/17 03:32:54;;;;;;;;;;;22.00;89.30;;;;;;5113954;28;19911;-54
2023/05/17 03:35:19;;;;;;;;;;;22.10;88.90;;;;;;5113890;28;19960;-51
2023/05/17 03:37:45;;;;;;;;;;;22.20;88.70;;;;;;5113709;28;19908;-50
2023/05/17 03:40:11;;;;;;;;;;;22.20;88.40;;;;;;5113289;28;19914;-55
2023/05/17 03:42:37;;;;;;;;;;;22.20;88.20;;;;;;5113574;28;19922;-50
2023/05/17 03:45:03;;;;;;;;;;;22.20;88.40;;;;;;5114065;28;19999;-54
2023/05/17 03:47:28;;;;;;;;;;;22.20;88.60;;;;;;5113993;28;20382;-50
2023/05/17 03:49:54;;;;;;;;;;;22.20;88.70;;;;;;5113914;28;19908;-52
2023/05/17 03:52:19;;;;;;;;;;;22.10;88.70;;;;;;5113991;28;19912;-51
2023/05/17 03:54:45;;;;;;;;;;;22.10;88.80;;;;;;5117661;28;19912;-53
2023/05/17 03:57:10;;;;;;;;;;;22.00;88.90;;;;;;5117537;28;19916;-52
2023/05/17 03:59:35;;;;;;;;;;;22.00;88.90;;;;;;5117504;28;19915;-54
2023/05/17 04:02:01;;;;;;;;;;;21.90;89.00;;;;;;5117313;28;20011;-53
2023/05/17 04:04:26;;;;;;;;;;;21.90;89.10;;;;;;5117142;28;19943;-54
2023/05/17 04:06:52;;;;;;;;;;;21.80;89.30;;;;;;5116971;28;19957;-55
2023/05/17 04:09:18;;;;;;;;;;;21.80;89.30;;;;;;5117271;28;19955;-55
2023/05/17 04:11:44;;;;;;;;;;;21.70;89.40;;;;;;5117319;28;19908;-52
2023/05/17 04:14:09;;;;;;;;;;;21.70;89.40;;;;;;5116793;28;19919;-55
2023/05/17 04:16:35;;;;;;;;;;;21.60;89.50;;;;;;5116756;28;19982;-53
2023/05/17 04:19:00;;;;;;;;;;;21.60;89.70;;;;;;5117101;28;20061;-55
2023/05/17 04:21:26;;;;;;;;;;;21.60;89.70;;;;;;5117042;28;19908;-53
2023/05/17 04:23:51;;;;;;;;;;;21.60;89.80;;;;;;5116906;28;19930;-53
2023/05/17 04:26:17;;;;;;;;;;;21.60;89.80;;;;;;5116436;28;19908;-55
2023/05/17 04:28:43;;;;;;;;;;;21.60;90.00;;;;;;5116852;28;20002;-52
2023/05/17 04:31:08;;;;;;;;;;;21.70;89.90;;;;;;5116856;28;19943;-52
2023/05/17 04:33:35;;;;;;;;;;;21.80;89.60;;;;;;5116663;28;19919;-51
2023/05/17 04:36:01;;;;;;;;;;;22.00;89.30;;;;;;5116577;28;20374;-54
2023/05/17 04:38:26;;;;;;;;;;;22.10;88.90;;;;;;5098226;28;20270;-53
2023/05/17 04:40:52;;;;;;;;;;;22.20;89.10;;;;;;5116534;28;19908;-53
2023/05/17 04:43:17;;;;;;;;;;;22.20;88.60;;;;;;5116415;28;19919;-54
2023/05/17 04:45:45;;;;;;;;;;;22.20;88.50;;;;;;5097887;28;20213;-53
2023/05/17 04:48:10;;;;;;;;;;;22.20;88.50;;;;;;5116551;28;19954;-55
2023/05/17 04:50:36;;;;;;;;;;;22.20;88.70;;;;;;5116247;28;19907;-54
2023/05/17 04:53:01;;;;;;;;;;;22.10;88.60;;;;;;5115862;28;20358;-53
2023/05/17 04:55:27;;;;;;;;;;;22.10;88.70;;;;;;5116192;28;19994;-54
2023/05/17 04:57:52;;;;;;;;;;;22.00;88.70;;;;;;5116156;28;20301;-51
2023/05/17 05:00:19;;;;;;;;;;;22.00;89.10;;;;;;5116276;28;19908;-52
2023/05/17 05:02:45;;;;;;;;;;;21.90;89.00;;;;;;5116225;28;19912;-54
2023/05/17 05:05:10;;;;;;;;;;;21.90;89.10;;;;;;5115875;28;19994;-52
2023/05/17 05:07:38;;;;;;;;;;;21.80;89.40;;;;;;5115909;28;20248;-55
2023/05/17 05:10:05;;;;;;;;;;;21.80;89.30;;;;;;5099471;28;19912;-52
2023/05/17 05:12:30;;;;;;;;;;;21.70;89.30;;;;;;5088389;28;20354;-53
2023/05/17 05:14:56;;;;;;;;;;;21.70;89.60;;;;;;5106679;28;19912;-55
2023/05/17 05:17:21;;;;;;;;;;;21.70;89.60;;;;;;5111604;28;19912;-53
2023/05/17 05:19:47;;;;;;;;;;;21.60;89.60;;;;;;5094814;28;19996;-52
2023/05/17 05:22:12;;;;;;;;;;;21.60;89.70;;;;;;5095005;28;19930;-55
2023/05/17 05:24:38;;;;;;;;;;;21.60;89.80;;;;;;5093342;28;19962;-49
2023/05/17 05:27:03;;;;;;;;;;;21.70;89.90;;;;;;5076247;28;20273;-52
2023/05/17 05:29:29;;;;;;;;;;;21.80;89.10;;;;;;5095063;28;19930;-52
2023/05/17 05:31:54;;;;;;;;;;;21.90;89.40;;;;;;5077046;28;19908;-50
2023/05/17 05:34:20;;;;;;;;;;;22.00;89.30;;;;;;5094976;28;19955;-52
2023/05/17 05:36:45;;;;;;;;;;;22.10;89.00;;;;;;5076784;28;19919;-53
2023/05/17 05:39:11;;;;;;;;;;;22.20;88.90;;;;;;5094647;28;19908;-52
2023/05/17 05:41:36;;;;;;;;;;;22.20;88.70;;;;;;5095153;28;19915;-50
2023/05/17 05:44:02;;;;;;;;;;;22.20;88.80;;;;;;5094838;28;19920;-52
2023/05/17 05:46:27;;;;;;;;;;;22.10;88.80;;;;;;5094766;28;19916;-52
2023/05/17 05:48:53;;;;;;;;;;;22.00;83.40;;;;;;5094105;28;20004;-54
2023/05/17 05:51:18;;;;;;;;;;;21.90;84.20;;;;;;5094347;28;19998;-52
2023/05/17 05:53:44;;;;;;;;;;;21.80;86.50;;;;;;5094237;28;19957;-52
2023/05/17 05:56:09;;;;;;;;;;;21.80;87.70;;;;;;5092890;28;20370;-52
2023/05/17 05:58:35;;;;;;;;;;;21.80;88.20;;;;;;5103135;28;19915;-57
2023/05/17 06:01:01;;;;;;;;;;;21.80;88.60;;;;;;5098921;28;19939;-54
2023/05/17 06:03:27;;;;;;;;;;;21.70;88.80;;;;;;5077807;28;19917;-56
2023/05/17 06:05:52;;;;;;;;;;;21.70;89.10;;;;;;5103674;28;19914;-56
2023/05/17 06:08:18;;;;;;;;;;;21.70;89.30;;;;;;5114516;28;19912;-55
2023/05/17 06:10:43;;;;;;;;;;;21.70;89.50;;;;;;5094220;28;19908;-56
2023/05/17 06:13:08;;;;;;;;;;;21.70;89.80;;;;;;5094504;28;19916;-56
2023/05/17 06:15:34;;;;;;;;;;;21.60;89.90;;;;;;5094048;28;20248;-57
2023/05/17 06:17:59;;;;;;;;;;;21.60;90.10;;;;;;5076048;28;19946;-58
2023/05/17 06:20:25;;;;;;;;;;;21.60;90.10;;;;;;5094148;28;19908;-57
2023/05/17 06:22:50;;;;;;;;;;;21.50;90.20;;;;;;5093802;28;19912;-57
2023/05/17 06:25:16;;;;;;;;;;;21.50;90.20;;;;;;5089972;28;20390;-56
2023/05/17 06:27:42;;;;;;;;;;;21.50;90.30;;;;;;5112534;28;19918;-53
2023/05/17 06:30:09;;;;;;;;;;;21.40;90.30;;;;;;5096337;28;19947;-53
2023/05/17 06:32:34;;;;;;;;;;;21.40;90.40;;;;;;5114369;28;19911;-56
2023/05/17 06:35:00;;;;;;;;;;;21.40;90.50;;;;;;5092922;28;20371;-52
2023/05/17 06:37:26;;;;;;;;;;;21.40;90.50;;;;;;5075074;28;19919;-54
2023/05/17 06:39:51;;;;;;;;;;;21.40;90.60;;;;;;5093836;28;19978;-55
2023/05/17 06:42:17;;;;;;;;;;;21.30;90.60;;;;;;5091524;28;19916;-53
2023/05/17 06:44:42;;;;;;;;;;;21.30;90.70;;;;;;5092971;28;19971;-52
2023/05/17 06:47:08;;;;;;;;;;;21.30;90.70;;;;;;5093896;28;20043;-54
2023/05/17 06:49:33;;;;;;;;;;;21.30;90.70;;;;;;5093972;28;20347;-55
2023/05/17 06:52:02;;;;;;;;;;;21.20;90.80;;;;;;5092725;28;19912;-57
2023/05/17 06:54:28;;;;;;;;;;;21.20;90.80;;;;;;5093644;28;19974;-53
2023/05/17 06:56:53;;;;;;;;;;;21.20;90.80;;;;;;5093763;28;19908;-56
2023/05/17 06:59:19;;;;;;;;;;;21.20;90.90;;;;;;5092679;28;20379;-55
2023/05/17 07:01:44;;;;;;;;;;;21.10;90.90;;;;;;5092458;28;19920;-56
2023/05/17 07:04:10;;;;;;;;;;;21.10;90.90;;;;;;5093635;28;19930;-56
2023/05/17 07:06:35;;;;;;;;;;;21.10;90.90;;;;;;5091914;28;19908;-56
2023/05/17 07:09:01;;;;;;;;;;;21.10;91.00;;;;;;5092387;28;19919;-55
2023/05/17 07:11:26;;;;;;;;;;;21.10;91.00;;;;;;5075537;28;20446;-56
2023/05/17 07:13:52;;;;;;;;;;;21.10;91.10;;;;;;5091063;28;20397;-55
2023/05/17 07:16:17;;;;;;;;;;;21.00;91.10;;;;;;5093548;28;19916;-53
2023/05/17 07:18:43;;;;;;;;;;;21.00;91.10;;;;;;5092321;28;19930;-57
2023/05/17 07:21:08;;;;;;;;;;;21.00;91.10;;;;;;5093363;28;20019;-53
2023/05/17 07:23:33;;;;;;;;;;;21.00;91.20;;;;;;5092396;28;19909;-55
2023/05/17 07:25:59;;;;;;;;;;;21.00;91.20;;;;;;5093396;28;19966;-55
2023/05/17 07:28:25;;;;;;;;;;;21.00;91.20;;;;;;5094617;28;20363;-50
2023/05/17 07:30:50;;;;;;;;;;;20.90;91.20;;;;;;5095359;28;19912;-55
2023/05/17 07:33:15;;;;;;;;;;;20.90;91.20;;;;;;5079069;28;19955;-55
2023/05/17 07:35:41;;;;;;;;;;;20.90;91.30;;;;;;5106770;28;20389;-56
2023/05/17 07:38:06;;;;;;;;;;;21.00;91.40;;;;;;5094120;28;20276;-56
2023/05/17 07:40:32;;;;;;;;;;;20.90;91.30;;;;;;5095889;28;20007;-56
2023/05/17 07:42:57;;;;;;;;;;;20.90;91.40;;;;;;5095748;28;19920;-54
2023/05/17 07:45:23;;;;;;;;;;;20.90;91.40;;;;;;5094506;28;19935;-55
2023/05/17 07:47:48;;;;;;;;;;;20.90;91.40;;;;;;5096053;28;19923;-56
2023/05/17 07:50:14;;;;;;;;;;;20.80;91.40;;;;;;5098757;28;20350;-56
2023/05/17 07:52:40;;;;;;;;;;;20.80;91.30;;;;;;5110624;28;20014;-58
2023/05/17 07:55:05;;;;;;;;;;;20.80;91.40;;;;;;5113714;28;20278;-57
2023/05/17 07:57:31;;;;;;;;;;;20.80;91.40;;;;;;5098068;28;19912;-61
2023/05/17 07:59:56;;;;;;;;;;;20.80;91.50;;;;;;5097089;28;19908;-56
2023/05/17 08:02:22;;;;;;;;;;;20.80;91.50;;;;;;5077934;28;20010;-57
2023/05/17 08:04:47;;;;;;;;;;;20.80;91.50;;;;;;5097739;28;19916;-55
2023/05/17 08:07:13;;;;;;;;;;;20.80;91.50;;;;;;5096120;28;19912;-65
2023/05/17 08:09:39;;;;;;;;;;;20.80;91.60;;;;;;5086437;28;19952;-63
2023/05/17 08:12:04;;;;;;;;;;;20.70;91.70;;;;;;5098901;28;19915;-62
2023/05/17 08:14:30;;;;;;;;;;;20.70;91.70;;;;;;5113592;28;19928;-61
2023/05/17 08:16:55;;;;;;;;;;;20.70;91.70;;;;;;5086899;28;20280;-61
2023/05/17 08:19:21;;;;;;;;;;;20.70;91.80;;;;;;5102219;28;20003;-62
2023/05/17 08:21:48;;;;;;;;;;;20.60;91.80;;;;;;5087361;28;19962;-62
2023/05/17 08:24:13;;;;;;;;;;;20.60;91.80;;;;;;5076891;28;20077;-63
2023/05/17 08:26:39;;;;;;;;;;;20.70;91.80;;;;;;5077345;28;20021;-64
2023/05/17 08:29:05;;;;;;;;;;;20.60;91.80;;;;;;5085052;28;19919;-63
2023/05/17 08:31:31;;;;;;;;;;;20.70;91.90;;;;;;5108631;28;19918;-62
2023/05/17 08:33:56;;;;;;;;;;;20.60;91.80;;;;;;5096294;28;19912;-63
2023/05/17 08:36:22;;;;;;;;;;;20.60;91.80;;;;;;5097358;28;20282;-63
2023/05/17 08:38:47;;;;;;;;;;;20.60;91.90;;;;;;5095363;28;19916;-62
2023/05/17 08:41:13;;;;;;;;;;;20.60;91.90;;;;;;5096560;28;20020;-64
2023/05/17 08:43:38;;;;;;;;;;;20.60;91.90;;;;;;5116582;28;20460;-62
2023/05/17 08:46:04;;;;;;;;;;;20.60;91.90;;;;;;5103310;28;19908;-62
2023/05/17 08:48:30;;;;;;;;;;;20.60;92.00;;;;;;5095868;28;19934;-55
2023/05/17 08:50:56;;;;;;;;;;;20.60;91.90;;;;;;5094632;28;20256;-58
2023/05/17 08:53:25;;;;;;;;;;;20.60;91.90;;;;;;5103772;28;19962;-60
2023/05/17 08:55:52;;;;;;;;;;;20.50;91.90;;;;;;5094624;28;19959;-61
2023/05/17 08:58:20;;;;;;;;;;;20.50;91.90;;;;;;5094468;28;20324;-59
2023/05/17 09:00:46;;;;;;;;;;;20.60;91.90;;;;;;5107945;28;19935;-57
2023/05/17 09:03:14;;;;;;;;;;;20.60;91.90;;;;;;5093105;28;19912;-61
2023/05/17 09:05:40;;;;;;;;;;;20.60;91.90;;;;;;5099677;28;19999;-55
2023/05/17 09:08:06;;;;;;;;;;;20.60;91.90;;;;;;5102034;28;19958;-60
2023/05/17 09:10:32;;;;;;;;;;;20.60;91.90;;;;;;5094319;28;19962;-57
2023/05/17 09:12:58;;;;;;;;;;;20.70;91.90;;;;;;5112559;28;19915;-57
2023/05/17 09:15:25;;;;;;;;;;;20.70;91.80;;;;;;5108991;28;19923;-55
2023/05/17 09:17:52;;;;;;;;;;;20.80;91.80;;;;;;5111660;28;19916;-60
2023/05/17 09:20:22;;;;;;;;;;;20.90;91.70;;;;;;5109620;28;19912;-59
2023/05/17 09:22:48;;;;;;;;;;;20.90;91.60;;;;;;5104818;28;19911;-58
2023/05/17 09:25:17;;;;;;;;;;;21.00;91.50;;;;;;5115653;28;19908;-56
2023/05/17 09:27:43;;;;;;;;;;;21.10;91.40;;;;;;5108612;28;20414;-58
2023/05/17 09:30:09;;;;;;;;;;;21.10;91.30;;;;;;5112003;28;19962;-59
2023/05/17 09:32:34;;;;;;;;;;;21.20;91.20;;;;;;5105752;28;20019;-59
2023/05/17 09:35:01;;;;;;;;;;;21.20;91.10;;;;;;5103404;28;19999;-52
2023/05/17 09:37:27;;;;;;;;;;;21.30;91.10;;;;;;5114393;28;19962;-56
2023/05/17 09:39:53;;;;;;;;;;;21.40;91.10;;;;;;5113487;28;20369;-57
2023/05/17 09:42:25;;;;;;;;;;;21.40;89.80;;;;;;5093821;28;20007;-49
2023/05/17 09:44:56;;;;;;;;;;;21.40;90.60;;;;;;5094639;28;19927;-49
2023/05/17 09:47:22;;;;;;;;;;;21.40;90.60;;;;;;5076639;28;19915;-53
2023/05/17 09:49:48;;;;;;;;;;;21.50;90.70;;;;;;5094471;28;20359;-51
2023/05/17 09:52:16;;;;;;;;;;;21.50;90.60;;;;;;5094344;28;19995;-54
2023/05/17 09:54:41;;;;;;;;;;;21.50;90.60;;;;;;5094733;28;19912;-52
2023/05/17 09:57:09;;;;;;;;;;;21.50;90.50;;;;;;5094231;28;19915;-50
2023/05/17 09:59:35;;;;;;;;;;;21.60;90.50;;;;;;5094492;28;19916;-53
2023/05/17 10:02:02;;;;;;;;;;;21.60;90.50;;;;;;5094827;28;19938;-52
2023/05/17 10:04:29;;;;;;;;;;;21.60;90.40;;;;;;5094454;28;19915;-53
2023/05/17 10:06:55;;;;;;;;;;;21.60;90.40;;;;;;5096318;28;19915;-51
2023/05/17 10:09:21;;;;;;;;;;;21.60;90.40;;;;;;5114851;28;20304;-53
2023/05/17 10:11:47;;;;;;;;;;;21.60;90.30;;;;;;5114785;28;19958;-54
2023/05/17 10:14:12;;;;;;;;;;;21.60;90.30;;;;;;5114554;28;19924;-51
2023/05/17 10:16:38;;;;;;;;;;;21.70;90.30;;;;;;5114736;28;20362;-53
2023/05/17 10:19:03;;;;;;;;;;;21.70;90.20;;;;;;5114518;28;19995;-50
2023/05/17 10:21:30;;;;;;;;;;;21.70;90.20;;;;;;5114301;28;20044;-51
2023/05/17 10:23:56;;;;;;;;;;;21.70;90.20;;;;;;5114388;28;19915;-54
2023/05/17 10:26:21;;;;;;;;;;;21.70;90.20;;;;;;5114602;28;19908;-57
2023/05/17 10:28:50;;;;;;;;;;;21.70;90.20;;;;;;5114626;28;19908;-56
2023/05/17 10:31:16;;;;;;;;;;;21.70;90.20;;;;;;5114516;28;19914;-56
2023/05/17 10:33:44;;;;;;;;;;;21.70;90.20;;;;;;5096211;28;20350;-56
2023/05/17 10:36:09;;;;;;;;;;;21.70;90.10;;;;;;5114245;28;19961;-52
2023/05/17 10:38:35;;;;;;;;;;;21.70;90.10;;;;;;5096013;28;19916;-54
2023/05/17 10:41:01;;;;;;;;;;;21.80;90.10;;;;;;5114288;28;19977;-54
2023/05/17 10:43:28;;;;;;;;;;;21.80;90.00;;;;;;5114097;28;20393;-53
2023/05/17 10:45:53;;;;;;;;;;;21.80;90.00;;;;;;5113790;28;19942;-54
2023/05/17 10:48:19;;;;;;;;;;;21.90;90.00;;;;;;5113974;28;19912;-54
2023/05/17 10:50:45;;;;;;;;;;;21.90;89.70;;;;;;5114255;28;19953;-52
2023/05/17 10:53:11;;;;;;;;;;;22.00;89.70;;;;;;5095751;28;19961;-52
2023/05/17 10:55:40;;;;;;;;;;;22.00;90.00;;;;;;5114155;28;19912;-54
2023/05/17 10:58:24;;;;;;;;;;;22.00;89.30;;;;;;5104463;28;19912;-59
2023/05/17 11:00:53;;;;;;;;;;;22.00;87.70;;;;;;5093211;28;20363;-59
2023/05/17 11:03:27;;;;;;;;;;;22.00;89.10;;;;;;5116589;28;19919;-55
2023/05/17 11:06:11;;;;;;;;;;;22.00;89.50;;;;;;5111796;28;20366;-57
2023/05/17 11:08:57;;;;;;;;;;;22.00;89.40;;;;;;5107203;28;19912;-59
2023/05/17 11:11:24;;;;;;;;;;;22.00;89.40;;;;;;5097100;28;19923;-57
2023/05/17 11:13:51;;;;;;;;;;;22.00;89.50;;;;;;5096289;28;19919;-55
2023/05/17 11:16:19;;;;;;;;;;;21.90;89.60;;;;;;5109514;28;20007;-61
2023/05/17 11:18:48;;;;;;;;;;;21.90;89.70;;;;;;5097174;28;19926;-61
2023/05/17 11:21:15;;;;;;;;;;;21.90;89.80;;;;;;5098088;28;20258;-61
2023/05/17 11:23:41;;;;;;;;;;;21.90;89.80;;;;;;5099211;28;20006;-60
2023/05/17 11:26:20;;;;;;;;;;;21.90;89.90;;;;;;5101511;28;20399;-60
2023/05/17 11:28:46;;;;;;;;;;;21.90;90.00;;;;;;5097368;28;19969;-60
2023/05/17 11:31:11;;;;;;;;;;;21.90;89.90;;;;;;5097145;28;19953;-60
2023/05/17 11:33:38;;;;;;;;;;;21.90;89.90;;;;;;5104188;28;20014;-59
2023/05/17 11:36:05;;;;;;;;;;;22.00;89.80;;;;;;5097279;28;19969;-58
2023/05/17 11:38:31;;;;;;;;;;;22.00;89.70;;;;;;5094700;28;19913;-58
2023/05/17 11:40:57;;;;;;;;;;;22.10;89.70;;;;;;5112494;28;20358;-59
2023/05/17 11:43:24;;;;;;;;;;;22.10;89.60;;;;;;5099053;28;19930;-59
2023/05/17 11:45:49;;;;;;;;;;;22.20;89.50;;;;;;5117698;28;19918;-55
2023/05/17 11:48:15;;;;;;;;;;;22.20;89.50;;;;;;5117341;28;19992;-57
2023/05/17 11:50:42;;;;;;;;;;;22.20;89.50;;;;;;5113429;28;19911;-58
2023/05/17 11:53:08;;;;;;;;;;;22.20;89.30;;;;;;5112302;28;19916;-55
2023/05/17 11:55:38;;;;;;;;;;;22.20;89.10;;;;;;5105546;28;19915;-55
2023/05/17 11:58:05;;;;;;;;;;;22.20;88.80;;;;;;5111587;28;19915;-58
2023/05/17 12:00:31;;;;;;;;;;;22.20;89.30;;;;;;5105139;28;19913;-57
2023/05/17 12:02:56;;;;;;;;;;;22.10;89.50;;;;;;5104623;28;19918;-55
2023/05/17 12:05:22;;;;;;;;;;;22.10;89.60;;;;;;5116908;28;19911;-59
2023/05/17 12:07:51;;;;;;;;;;;22.00;89.70;;;;;;5117043;28;20251;-53
2023/05/17 12:10:17;;;;;;;;;;;22.00;89.80;;;;;;5111847;28;19956;-57
2023/05/17 12:12:43;;;;;;;;;;;22.00;90.00;;;;;;5099723;28;19962;-56
2023/05/17 12:15:09;;;;;;;;;;;22.00;90.00;;;;;;5116256;28;20354;-57
2023/05/17 12:17:38;;;;;;;;;;;21.90;90.10;;;;;;5117079;28;20312;-55
2023/05/17 12:20:07;;;;;;;;;;;21.90;90.10;;;;;;5098554;28;19914;-55
2023/05/17 12:22:33;;;;;;;;;;;21.90;90.10;;;;;;5114254;28;19918;-57
2023/05/17 12:24:58;;;;;;;;;;;21.90;90.20;;;;;;5115878;28;19915;-59
2023/05/17 12:27:25;;;;;;;;;;;22.00;90.10;;;;;;5107967;28;19912;-57
2023/05/17 12:29:51;;;;;;;;;;;22.10;90.10;;;;;;5096184;28;19931;-57
2023/05/17 12:32:16;;;;;;;;;;;22.10;90.00;;;;;;5105985;28;19911;-60
2023/05/17 12:34:42;;;;;;;;;;;22.20;89.80;;;;;;5102909;28;19920;-56
2023/05/17 12:37:09;;;;;;;;;;;22.30;89.70;;;;;;5096567;28;19908;-54
2023/05/17 12:39:34;;;;;;;;;;;22.30;89.60;;;;;;5095781;28;19915;-58
2023/05/17 12:42:00;;;;;;;;;;;22.30;89.50;;;;;;5099000;28;19912;-59
2023/05/17 12:44:26;;;;;;;;;;;22.30;89.50;;;;;;5116519;28;19931;-59
2023/05/17 12:46:54;;;;;;;;;;;22.30;89.40;;;;;;5100139;28;20328;-58
2023/05/17 12:49:20;;;;;;;;;;;22.20;89.50;;;;;;5098702;28;20347;-53
2023/05/17 12:51:47;;;;;;;;;;;22.20;89.70;;;;;;5116107;28;19914;-55
2023/05/17 12:54:33;;;;;;;;;;;22.20;89.80;;;;;;5116250;28;19954;-61
2023/05/17 12:57:08;;;;;;;;;;;22.10;89.90;;;;;;5112329;28;20044;-58
2023/05/17 12:59:35;;;;;;;;;;;22.10;90.00;;;;;;5097710;28;19908;-58
2023/05/17 13:02:01;;;;;;;;;;;22.10;90.00;;;;;;5101291;28;20419;-59
2023/05/17 13:04:30;;;;;;;;;;;22.00;90.10;;;;;;5107463;28;19912;-57
2023/05/17 13:07:01;;;;;;;;;;;22.00;90.10;;;;;;5087690;28;19919;-55
2023/05/17 13:09:29;;;;;;;;;;;22.00;90.20;;;;;;5101778;28;19912;-53
2023/05/17 13:11:57;;;;;;;;;;;22.00;90.20;;;;;;5113365;28;19999;-57
2023/05/17 13:14:40;;;;;;;;;;;22.10;90.20;;;;;;5115463;28;19927;-59
2023/05/17 13:17:08;;;;;;;;;;;22.10;90.20;;;;;;5111325;28;19915;-59
2023/05/17 13:19:37;;;;;;;;;;;22.20;90.10;;;;;;5093930;28;19912;-56
2023/05/17 13:22:03;;;;;;;;;;;22.20;90.00;;;;;;5093057;28;19919;-56
2023/05/17 13:24:35;;;;;;;;;;;22.30;90.00;;;;;;5093636;28;20342;-58
2023/05/17 13:27:01;;;;;;;;;;;22.30;89.80;;;;;;5095566;28;19972;-57
2023/05/17 13:29:27;;;;;;;;;;;22.30;89.80;;;;;;5115569;28;19911;-59
2023/05/17 13:31:53;;;;;;;;;;;22.30;89.80;;;;;;5106186;28;19920;-60
2023/05/17 13:34:19;;;;;;;;;;;22.30;89.80;;;;;;5103019;28;19920;-59
2023/05/17 13:36:45;;;;;;;;;;;22.20;89.90;;;;;;5094459;28;19915;-56
2023/05/17 13:39:11;;;;;;;;;;;22.20;90.00;;;;;;5101740;28;20014;-52
2023/05/17 13:41:37;;;;;;;;;;;22.20;90.00;;;;;;5094185;28;19973;-52
2023/05/17 13:44:02;;;;;;;;;;;22.10;88.60;;;;;;5094602;28;19920;-53
2023/05/17 13:46:28;;;;;;;;;;;22.10;89.70;;;;;;5107015;28;19919;-52
2023/05/17 13:48:53;;;;;;;;;;;22.00;90.00;;;;;;5104198;28;19938;-53
2023/05/17 13:51:19;;;;;;;;;;;22.00;90.10;;;;;;5093501;28;20002;-51
2023/05/17 13:53:44;;;;;;;;;;;22.00;90.10;;;;;;5076149;28;19912;-49
2023/05/17 13:56:10;;;;;;;;;;;21.90;90.20;;;;;;5094190;28;19922;-53
2023/05/17 13:58:35;;;;;;;;;;;21.90;90.20;;;;;;5094167;28;20355;-51
2023/05/17 14:01:01;;;;;;;;;;;21.80;90.20;;;;;;5094445;28;19915;-53
2023/05/17 14:03:26;;;;;;;;;;;21.80;90.30;;;;;;5076034;28;19909;-49
2023/05/17 14:05:52;;;;;;;;;;;21.80;90.30;;;;;;5094114;28;20031;-53
2023/05/17 14:08:19;;;;;;;;;;;21.80;90.30;;;;;;5076231;28;20374;-51
2023/05/17 14:10:44;;;;;;;;;;;21.80;90.30;;;;;;5094111;28;19908;-52
2023/05/17 14:13:11;;;;;;;;;;;21.80;90.30;;;;;;5094424;28;20325;-48